createdAt,value
2022-09-15T00:02:15.414Z,15.50
2022-09-15T00:06:17.980Z,15.43
2022-09-15T00:10:19.725Z,15.41
2022-09-15T00:14:21.468Z,15.41
2022-09-15T00:18:23.487Z,15.43
2022-09-15T00:22:26.336Z,15.47
2022-09-15T00:26:29.995Z,15.54
2022-09-15T00:30:31.799Z,15.58
2022-09-15T00:34:33.634Z,15.64
2022-09-15T00:38:36.490Z,15.67
2022-09-15T00:42:38.376Z,15.71
2022-09-15T00:46:42.774Z,15.75
2022-09-15T00:50:49.675Z,15.83
2022-09-15T00:54:54.350Z,15.86
2022-09-15T00:59:01.585Z,15.90
2022-09-15T01:03:04.218Z,15.91
2022-09-15T01:07:07.661Z,15.89
2022-09-15T01:11:09.595Z,15.87
2022-09-15T01:15:11.947Z,15.83
2022-09-15T01:19:16.360Z,15.84
2022-09-15T01:23:53.409Z,15.86
2022-09-15T01:28:30.383Z,15.92
2022-09-15T01:33:02.517Z,15.95
2022-09-15T01:37:13.153Z,16.00
2022-09-15T01:41:25.550Z,16.03
2022-09-15T01:45:31.194Z,16.05
2022-09-15T01:49:50.698Z,16.04
2022-09-15T01:53:53.897Z,16.06
2022-09-15T01:57:55.563Z,16.05
2022-09-15T02:02:23.007Z,16.04
2022-09-15T02:06:36.106Z,16.05
2022-09-15T02:10:37.779Z,16.06
2022-09-15T02:15:01.140Z,16.07
2022-09-15T02:19:10.257Z,16.09
2022-09-15T02:23:28.819Z,16.08
2022-09-15T02:27:34.076Z,16.08
2022-09-15T02:31:39.565Z,16.06
2022-09-15T02:35:42.318Z,16.04
2022-09-15T02:39:49.588Z,16.02
2022-09-15T02:43:51.464Z,15.99
2022-09-15T02:47:53.204Z,15.99
2022-09-15T02:51:55.042Z,15.98
2022-09-15T02:55:58.062Z,15.97
2022-09-15T03:00:15.037Z,15.96
2022-09-15T03:04:16.799Z,15.96
2022-09-15T03:08:18.475Z,15.92
2022-09-15T03:12:20.112Z,15.89
2022-09-15T03:16:22.165Z,15.88
2022-09-15T03:20:30.400Z,15.88
2022-09-15T03:24:32.098Z,15.89
2022-09-15T03:28:33.842Z,15.88
2022-09-15T03:32:36.115Z,15.89
2022-09-15T03:36:38.352Z,15.88
2022-09-15T03:40:40.288Z,15.88
2022-09-15T03:44:42.083Z,15.88
2022-09-15T03:48:43.860Z,15.87
2022-09-15T03:52:45.500Z,15.88
2022-09-15T03:56:49.136Z,15.88
2022-09-15T04:00:50.924Z,15.88
2022-09-15T04:04:52.658Z,15.88
2022-09-15T04:08:55.137Z,15.89
2022-09-15T04:12:57.309Z,15.87
2022-09-15T04:16:59.043Z,15.84
2022-09-15T04:21:02.050Z,15.79
2022-09-15T04:25:04.136Z,15.74
2022-09-15T04:29:12.358Z,15.74
2022-09-15T04:33:13.919Z,15.73
2022-09-15T04:37:15.610Z,15.74
2022-09-15T04:41:18.779Z,15.73
2022-09-15T04:45:20.450Z,15.72
2022-09-15T04:49:22.110Z,15.71
2022-09-15T04:53:23.889Z,15.73
2022-09-15T04:57:25.692Z,15.73
2022-09-15T05:01:30.072Z,15.73
2022-09-15T05:05:34.519Z,15.74
2022-09-15T05:09:36.186Z,15.73
2022-09-15T05:13:39.754Z,15.70
2022-09-15T05:17:41.418Z,15.68
2022-09-15T05:21:43.273Z,15.68
2022-09-15T05:25:54.581Z,15.67
2022-09-15T05:30:09.962Z,15.64
2022-09-15T05:34:17.954Z,15.59
2022-09-15T05:38:19.858Z,15.57
2022-09-15T05:42:21.497Z,15.58
2022-09-15T05:46:26.156Z,15.59
2022-09-15T05:50:27.965Z,15.59
2022-09-15T05:54:29.637Z,15.61
2022-09-15T05:58:32.657Z,15.61
2022-09-15T06:02:34.498Z,15.63
2022-09-15T06:06:36.197Z,15.65
2022-09-15T06:10:37.928Z,15.67
2022-09-15T06:14:39.626Z,15.70
2022-09-15T06:18:42.285Z,15.72
2022-09-15T06:22:47.290Z,15.74
2022-09-15T06:26:48.954Z,15.78
2022-09-15T06:30:51.799Z,15.82
2022-09-15T06:34:53.450Z,15.86
2022-09-15T06:38:55.554Z,15.92
2022-09-15T06:42:57.259Z,15.98
2022-09-15T06:46:58.986Z,16.03
2022-09-15T06:51:01.596Z,16.08
2022-09-15T06:55:03.967Z,16.10
2022-09-15T06:59:06.239Z,16.08
2022-09-15T07:03:08.107Z,16.07
2022-09-15T07:07:09.933Z,16.08
2022-09-15T07:11:11.610Z,16.09
2022-09-15T07:15:13.468Z,16.11
2022-09-15T07:19:15.231Z,16.11
2022-09-15T07:23:18.193Z,16.16
2022-09-15T07:27:19.933Z,16.16
2022-09-15T07:31:23.676Z,16.17
2022-09-15T07:35:25.422Z,16.19
2022-09-15T07:39:27.048Z,16.24
2022-09-15T07:43:28.715Z,16.31
2022-09-15T07:47:30.377Z,16.36
2022-09-15T07:51:32.313Z,16.47
2022-09-15T07:55:33.989Z,16.56
2022-09-15T07:59:40.569Z,16.62
2022-09-15T08:03:45.475Z,16.60
2022-09-15T08:07:47.456Z,16.64
2022-09-15T08:11:49.710Z,16.59
2022-09-15T08:15:52.294Z,16.27
2022-09-15T08:19:54.137Z,15.91
2022-09-15T08:23:58.426Z,15.74
2022-09-15T08:28:00.199Z,15.65
2022-09-15T08:32:02.499Z,15.61
2022-09-15T08:36:07.561Z,15.66
2022-09-15T08:40:22.524Z,15.74
2022-09-15T08:44:46.581Z,15.74
2022-09-15T08:49:02.986Z,15.66
2022-09-15T08:53:14.118Z,15.73
2022-09-15T08:57:22.593Z,15.84
2022-09-15T09:01:42.575Z,15.94
2022-09-15T09:05:58.380Z,16.10
2022-09-15T09:09:59.999Z,16.26
2022-09-15T09:14:23.681Z,16.31
2022-09-15T09:19:03.768Z,16.38
2022-09-15T09:23:12.898Z,16.43
2022-09-15T09:27:20.689Z,16.52
2022-09-15T09:31:24.876Z,16.62
2022-09-15T09:35:43.201Z,16.69
2022-09-15T09:39:46.854Z,16.77
2022-09-15T09:43:49.399Z,16.87
2022-09-15T09:47:51.051Z,16.98
2022-09-15T09:51:55.266Z,17.11
2022-09-15T09:56:18.144Z,17.26
2022-09-15T10:00:37.900Z,17.37
2022-09-15T10:04:41.982Z,17.47
2022-09-15T10:08:59.001Z,17.53
2022-09-15T10:13:03.247Z,17.57
2022-09-15T10:17:17.243Z,17.71
2022-09-15T10:21:23.742Z,17.83
2022-09-15T10:25:44.168Z,17.86
2022-09-15T10:29:49.798Z,17.77
2022-09-15T10:33:52.747Z,17.66
2022-09-15T10:38:12.215Z,17.65
2022-09-15T10:42:19.673Z,17.66
2022-09-15T10:47:03.017Z,17.62
2022-09-15T10:51:17.376Z,17.60
2022-09-15T10:55:52.974Z,17.57
2022-09-15T11:00:10.053Z,17.61
2022-09-15T11:04:53.502Z,17.65
2022-09-15T11:09:17.483Z,17.77
2022-09-15T11:13:25.737Z,17.91
2022-09-15T11:17:46.279Z,18.02
2022-09-15T11:21:54.600Z,18.05
2022-09-15T11:26:04.920Z,17.99
2022-09-15T11:30:06.901Z,17.97
2022-09-15T11:34:23.639Z,17.99
2022-09-15T11:38:43.103Z,18.01
2022-09-15T11:43:00.656Z,18.01
2022-09-15T11:47:05.243Z,17.93
2022-09-15T11:51:07.621Z,17.88
2022-09-15T11:55:24.517Z,17.80
2022-09-15T11:59:39.239Z,17.73
2022-09-15T12:03:52.843Z,17.67
2022-09-15T12:08:13.075Z,17.65
2022-09-15T12:12:18.762Z,17.62
2022-09-15T12:16:21.440Z,17.60
2022-09-15T12:20:29.742Z,17.63
2022-09-15T12:24:40.574Z,17.62
2022-09-15T12:28:54.716Z,17.64
2022-09-15T12:32:56.565Z,17.70
2022-09-15T12:37:26.207Z,17.73
2022-09-15T12:41:29.213Z,17.83
2022-09-15T12:45:34.531Z,17.90
2022-09-15T12:49:43.505Z,17.96
2022-09-15T12:54:07.537Z,17.93
2022-09-15T12:58:15.790Z,17.91
2022-09-15T13:02:46.978Z,17.84
2022-09-15T13:07:16.755Z,17.84
2022-09-15T13:11:25.558Z,17.84
2022-09-15T13:15:28.066Z,17.79
2022-09-15T13:19:44.072Z,17.82
2022-09-15T13:23:51.080Z,17.77
2022-09-15T13:27:55.641Z,17.73
2022-09-15T13:32:20.280Z,17.75
2022-09-15T13:41:40.246Z,17.79
2022-09-15T13:46:20.502Z,17.82
2022-09-15T13:50:32.886Z,17.74
2022-09-15T13:54:34.604Z,17.68
2022-09-15T14:03:03.333Z,17.61
2022-09-15T14:07:05.127Z,17.63
2022-09-15T14:11:11.194Z,17.58
2022-09-15T14:15:18.387Z,17.49
2022-09-15T14:19:36.808Z,17.34
2022-09-15T14:23:45.213Z,17.29
2022-09-15T14:27:49.854Z,17.22
2022-09-15T14:31:51.986Z,17.21
2022-09-15T14:35:54.840Z,17.25
2022-09-15T14:39:58.932Z,17.31
2022-09-15T14:44:00.765Z,17.37
2022-09-15T14:48:07.313Z,17.40
2022-09-15T14:52:29.153Z,17.36
2022-09-15T14:56:35.317Z,17.33
2022-09-15T15:01:02.316Z,17.28
2022-09-15T15:05:46.023Z,17.24
2022-09-15T15:09:52.811Z,17.15
2022-09-15T15:13:55.155Z,17.13
2022-09-15T15:17:57.439Z,17.16
2022-09-15T15:22:14.272Z,17.09
2022-09-15T15:26:35.967Z,16.99
2022-09-15T15:30:47.228Z,16.96
2022-09-15T15:35:19.006Z,16.94
2022-09-15T15:39:24.929Z,16.95
2022-09-15T15:43:27.585Z,16.96
2022-09-15T15:47:36.284Z,17.01
2022-09-15T15:51:37.884Z,17.05
2022-09-15T15:55:41.853Z,17.02
2022-09-15T15:59:43.510Z,16.87
2022-09-15T16:03:45.245Z,16.89
2022-09-15T16:07:49.637Z,16.89
2022-09-15T16:11:51.403Z,16.77
2022-09-15T16:15:54.156Z,16.66
2022-09-15T16:19:56.037Z,16.57
2022-09-15T16:23:57.780Z,16.53
2022-09-15T16:28:00.580Z,16.48
2022-09-15T16:32:03.630Z,16.45
2022-09-15T16:36:08.930Z,16.38
2022-09-15T16:40:10.714Z,16.36
2022-09-15T16:44:19.861Z,16.32
2022-09-15T16:48:21.934Z,16.27
2022-09-15T16:52:23.650Z,16.18
2022-09-15T16:56:25.523Z,16.11
2022-09-15T17:00:28.599Z,16.01
2022-09-15T17:04:30.414Z,15.97
2022-09-15T17:08:33.274Z,15.93
2022-09-15T17:12:36.362Z,15.93
2022-09-15T17:16:38.379Z,15.90
2022-09-15T17:20:40.039Z,15.65
2022-09-15T17:24:41.841Z,15.43
2022-09-15T17:28:43.548Z,15.27
2022-09-15T17:32:45.417Z,15.15
2022-09-15T17:36:47.123Z,15.04
2022-09-15T17:40:50.632Z,14.94
2022-09-15T17:44:52.396Z,14.89
2022-09-15T17:48:54.283Z,14.91
2022-09-15T17:52:56.550Z,14.91
2022-09-15T17:56:58.210Z,14.93
2022-09-15T18:01:00.417Z,14.96
2022-09-15T18:05:02.127Z,14.97
2022-09-15T18:09:03.854Z,14.98
2022-09-15T18:13:06.337Z,15.00
2022-09-15T18:17:09.544Z,15.03
2022-09-15T18:21:25.883Z,15.04
2022-09-15T18:25:33.648Z,15.03
2022-09-15T18:29:35.366Z,14.99
2022-09-15T18:33:37.020Z,14.90
2022-09-15T18:37:38.993Z,14.90
2022-09-15T18:41:40.918Z,14.88
2022-09-15T18:45:42.910Z,14.88
2022-09-15T18:49:44.633Z,14.86
2022-09-15T18:53:49.752Z,14.89
2022-09-15T18:57:53.775Z,14.92
2022-09-15T19:01:55.512Z,14.92
2022-09-15T19:06:05.418Z,14.79
2022-09-15T19:10:07.812Z,14.67
2022-09-15T19:14:09.565Z,14.62
2022-09-15T19:18:11.268Z,14.58
2022-09-15T19:22:13.186Z,14.53
2022-09-15T19:26:17.021Z,14.52
2022-09-15T19:30:18.789Z,14.49
2022-09-15T19:34:21.206Z,14.48
2022-09-15T19:38:22.889Z,14.50
2022-09-15T19:42:24.598Z,14.52
2022-09-15T19:46:27.245Z,14.55
2022-09-15T19:50:29.179Z,14.56
2022-09-15T19:54:31.194Z,14.58
2022-09-15T19:58:33.297Z,14.59
2022-09-15T20:02:34.982Z,14.59
2022-09-15T20:06:37.033Z,14.59
2022-09-15T20:10:39.653Z,14.57
2022-09-15T20:14:41.528Z,14.48
2022-09-15T20:18:46.735Z,14.36
2022-09-15T20:22:48.449Z,14.29
2022-09-15T20:26:54.863Z,14.26
2022-09-15T20:31:04.322Z,14.23
2022-09-15T20:35:06.402Z,14.24
2022-09-15T20:39:13.099Z,14.24
2022-09-15T20:43:15.018Z,14.21
2022-09-15T20:47:16.762Z,13.94
2022-09-15T20:51:26.205Z,13.66
2022-09-15T20:55:27.948Z,13.59
2022-09-15T20:59:29.614Z,13.57
2022-09-15T21:03:31.360Z,13.55
2022-09-15T21:07:33.015Z,13.54
2022-09-15T21:11:34.899Z,13.53
2022-09-15T21:15:36.577Z,13.48
2022-09-15T21:19:40.225Z,13.44
2022-09-15T21:23:53.281Z,13.42
2022-09-15T21:27:55.074Z,13.41
2022-09-15T21:31:57.400Z,13.42
2022-09-15T21:36:08.231Z,13.42
2022-09-15T21:40:10.789Z,13.43
2022-09-15T21:44:12.550Z,13.42
2022-09-15T21:48:14.406Z,13.42
2022-09-15T21:52:16.108Z,13.40
2022-09-15T21:56:17.927Z,13.38
2022-09-15T22:00:19.595Z,13.35
2022-09-15T22:04:21.337Z,13.28
2022-09-15T22:08:23.111Z,13.27
2022-09-15T22:12:24.861Z,13.28
2022-09-15T22:16:26.905Z,13.29
2022-09-15T22:20:29.508Z,13.31
2022-09-15T22:24:31.203Z,13.32
2022-09-15T22:28:32.995Z,13.28
2022-09-15T22:32:35.355Z,13.28
2022-09-15T22:36:37.161Z,13.30
2022-09-15T22:40:39.034Z,13.28
2022-09-15T22:44:40.750Z,13.27
2022-09-15T22:48:43.659Z,13.29
2022-09-15T22:52:45.635Z,13.30
2022-09-15T22:56:47.337Z,13.30
2022-09-15T23:00:49.294Z,13.33
2022-09-15T23:04:51.334Z,13.30
2022-09-15T23:08:58.154Z,13.28
2022-09-15T23:12:59.915Z,13.24
2022-09-15T23:17:01.773Z,13.24
2022-09-15T23:21:09.244Z,13.18
2022-09-15T23:25:10.938Z,13.14
2022-09-15T23:29:12.632Z,13.06
2022-09-15T23:33:14.325Z,13.02
2022-09-15T23:37:16.115Z,12.99
2022-09-15T23:41:18.635Z,12.94
2022-09-15T23:45:20.301Z,12.91
2022-09-15T23:49:22.035Z,12.92
2022-09-15T23:53:24.261Z,12.94
2022-09-15T23:57:25.942Z,12.97
